sensor_id;sensor_type;location;lat;lon;timestamp;P1;durP1;ratioP1;P2;durP2;ratioP2
38693;SDS011;24447;43.460;25.744;2023-11-19T00:01:23;2.00;;;1.55;;
38693;SDS011;24447;43.460;25.744;2023-11-19T00:03:49;6.03;;;2.40;;
38693;SDS011;24447;43.460;25.744;2023-11-19T00:06:15;3.85;;;1.63;;
38693;SDS011;24447;43.460;25.744;2023-11-19T00:08:41;1.83;;;1.33;;
38693;SDS011;24447;43.460;25.744;2023-11-19T00:11:08;8.18;;;3.13;;
38693;SDS011;24447;43.460;25.744;2023-11-19T00:13:35;8.23;;;2.75;;
38693;SDS011;24447;43.460;25.744;2023-11-19T00:16:00;12.80;;;5.18;;
38693;SDS011;24447;43.460;25.744;2023-11-19T00:18:29;9.10;;;4.28;;
38693;SDS011;24447;43.460;25.744;2023-11-19T00:20:55;3.28;;;2.45;;
38693;SDS011;24447;43.460;25.744;2023-11-19T00:23:21;6.05;;;2.92;;
38693;SDS011;24447;43.460;25.744;2023-11-19T00:25:48;4.93;;;2.90;;
38693;SDS011;24447;43.460;25.744;2023-11-19T00:28:14;9.00;;;3.35;;
38693;SDS011;24447;43.460;25.744;2023-11-19T00:30:40;2.15;;;1.95;;
38693;SDS011;24447;43.460;25.744;2023-11-19T00:33:06;2.42;;;1.60;;
38693;SDS011;24447;43.460;25.744;2023-11-19T00:35:32;5.25;;;1.95;;
38693;SDS011;24447;43.460;25.744;2023-11-19T00:37:58;4.05;;;1.65;;
38693;SDS011;24447;43.460;25.744;2023-11-19T00:40:25;10.90;;;2.45;;
38693;SDS011;24447;43.460;25.744;2023-11-19T00:42:51;3.92;;;1.63;;
38693;SDS011;24447;43.460;25.744;2023-11-19T00:45:17;4.28;;;1.70;;
38693;SDS011;24447;43.460;25.744;2023-11-19T00:47:43;12.93;;;3.80;;
38693;SDS011;24447;43.460;25.744;2023-11-19T00:50:09;3.17;;;2.20;;
38693;SDS011;24447;43.460;25.744;2023-11-19T00:52:36;7.22;;;2.05;;
38693;SDS011;24447;43.460;25.744;2023-11-19T00:55:02;10.18;;;4.40;;
38693;SDS011;24447;43.460;25.744;2023-11-19T00:57:30;35.60;;;11.70;;
38693;SDS011;24447;43.460;25.744;2023-11-19T00:59:58;22.40;;;7.38;;
38693;SDS011;24447;43.460;25.744;2023-11-19T01:02:31;9.98;;;3.65;;
38693;SDS011;24447;43.460;25.744;2023-11-19T01:04:59;5.68;;;2.95;;
38693;SDS011;24447;43.460;25.744;2023-11-19T01:07:25;5.65;;;3.22;;
38693;SDS011;24447;43.460;25.744;2023-11-19T01:09:52;5.97;;;2.53;;
38693;SDS011;24447;43.460;25.744;2023-11-19T01:12:19;11.68;;;4.53;;
38693;SDS011;24447;43.460;25.744;2023-11-19T01:14:45;8.93;;;4.05;;
38693;SDS011;24447;43.460;25.744;2023-11-19T01:17:11;17.80;;;6.13;;
38693;SDS011;24447;43.460;25.744;2023-11-19T01:19:36;19.65;;;8.20;;
38693;SDS011;24447;43.460;25.744;2023-11-19T01:22:02;18.98;;;7.88;;
38693;SDS011;24447;43.460;25.744;2023-11-19T01:24:28;22.70;;;6.43;;
38693;SDS011;24447;43.460;25.744;2023-11-19T01:26:56;16.00;;;5.82;;
38693;SDS011;24447;43.460;25.744;2023-11-19T01:29:22;17.13;;;5.60;;
38693;SDS011;24447;43.460;25.744;2023-11-19T01:31:48;15.82;;;6.75;;
38693;SDS011;24447;43.460;25.744;2023-11-19T01:34:16;7.72;;;3.30;;
38693;SDS011;24447;43.460;25.744;2023-11-19T01:36:42;8.93;;;3.88;;
38693;SDS011;24447;43.460;25.744;2023-11-19T01:39:08;6.40;;;2.95;;
38693;SDS011;24447;43.460;25.744;2023-11-19T01:41:34;7.72;;;2.67;;
38693;SDS011;24447;43.460;25.744;2023-11-19T01:44:01;5.30;;;2.95;;
38693;SDS011;24447;43.460;25.744;2023-11-19T01:46:27;5.35;;;2.88;;
38693;SDS011;24447;43.460;25.744;2023-11-19T01:48:53;8.93;;;3.05;;
38693;SDS011;24447;43.460;25.744;2023-11-19T01:51:20;3.53;;;2.50;;
38693;SDS011;24447;43.460;25.744;2023-11-19T01:53:47;1.70;;;1.60;;
38693;SDS011;24447;43.460;25.744;2023-11-19T01:56:14;4.10;;;1.95;;
38693;SDS011;24447;43.460;25.744;2023-11-19T01:58:41;3.67;;;2.28;;
38693;SDS011;24447;43.460;25.744;2023-11-19T02:01:07;3.67;;;2.20;;
38693;SDS011;24447;43.460;25.744;2023-11-19T02:03:34;6.10;;;2.50;;
38693;SDS011;24447;43.460;25.744;2023-11-19T02:06:00;5.90;;;3.03;;
38693;SDS011;24447;43.460;25.744;2023-11-19T02:08:26;6.40;;;2.63;;
38693;SDS011;24447;43.460;25.744;2023-11-19T02:10:52;8.90;;;3.70;;
38693;SDS011;24447;43.460;25.744;2023-11-19T02:13:22;15.13;;;3.90;;
38693;SDS011;24447;43.460;25.744;2023-11-19T02:15:48;10.68;;;3.17;;
38693;SDS011;24447;43.460;25.744;2023-11-19T02:18:23;8.70;;;3.85;;
38693;SDS011;24447;43.460;25.744;2023-11-19T02:20:53;10.05;;;2.65;;
38693;SDS011;24447;43.460;25.744;2023-11-19T02:23:22;6.18;;;2.53;;
38693;SDS011;24447;43.460;25.744;2023-11-19T02:28:41;7.13;;;2.55;;
38693;SDS011;24447;43.460;25.744;2023-11-19T02:31:08;7.50;;;3.50;;
38693;SDS011;24447;43.460;25.744;2023-11-19T02:33:35;7.72;;;3.53;;
38693;SDS011;24447;43.460;25.744;2023-11-19T02:36:04;9.30;;;3.58;;
38693;SDS011;24447;43.460;25.744;2023-11-19T02:38:32;9.35;;;3.70;;
38693;SDS011;24447;43.460;25.744;2023-11-19T02:40:58;7.43;;;3.50;;
38693;SDS011;24447;43.460;25.744;2023-11-19T02:43:30;8.30;;;2.75;;
38693;SDS011;24447;43.460;25.744;2023-11-19T02:45:59;7.53;;;2.80;;
38693;SDS011;24447;43.460;25.744;2023-11-19T02:48:35;6.10;;;3.10;;
38693;SDS011;24447;43.460;25.744;2023-11-19T02:51:01;6.25;;;3.22;;
38693;SDS011;24447;43.460;25.744;2023-11-19T02:53:34;3.92;;;2.85;;
38693;SDS011;24447;43.460;25.744;2023-11-19T02:56:02;5.65;;;2.70;;
38693;SDS011;24447;43.460;25.744;2023-11-19T02:58:37;3.33;;;2.33;;
38693;SDS011;24447;43.460;25.744;2023-11-19T03:01:04;5.78;;;2.20;;
38693;SDS011;24447;43.460;25.744;2023-11-19T03:03:44;2.00;;;1.83;;
38693;SDS011;24447;43.460;25.744;2023-11-19T03:06:14;3.08;;;1.77;;
38693;SDS011;24447;43.460;25.744;2023-11-19T03:08:40;4.32;;;1.92;;
38693;SDS011;24447;43.460;25.744;2023-11-19T03:11:07;1.83;;;1.67;;
38693;SDS011;24447;43.460;25.744;2023-11-19T03:13:33;2.95;;;1.42;;
38693;SDS011;24447;43.460;25.744;2023-11-19T03:15:59;3.45;;;1.73;;
38693;SDS011;24447;43.460;25.744;2023-11-19T03:18:25;6.05;;;2.90;;
38693;SDS011;24447;43.460;25.744;2023-11-19T03:20:52;5.20;;;2.17;;
38693;SDS011;24447;43.460;25.744;2023-11-19T03:23:17;5.57;;;1.95;;
38693;SDS011;24447;43.460;25.744;2023-11-19T03:25:43;7.32;;;2.42;;
38693;SDS011;24447;43.460;25.744;2023-11-19T03:28:09;6.43;;;2.92;;
38693;SDS011;24447;43.460;25.744;2023-11-19T03:30:36;5.93;;;2.60;;
38693;SDS011;24447;43.460;25.744;2023-11-19T03:33:02;5.22;;;2.50;;
38693;SDS011;24447;43.460;25.744;2023-11-19T03:35:28;5.32;;;2.35;;
38693;SDS011;24447;43.460;25.744;2023-11-19T03:37:54;5.93;;;2.55;;
38693;SDS011;24447;43.460;25.744;2023-11-19T03:40:20;5.53;;;2.20;;
38693;SDS011;24447;43.460;25.744;2023-11-19T03:42:47;4.03;;;2.13;;
38693;SDS011;24447;43.460;25.744;2023-11-19T03:45:13;4.20;;;2.05;;
38693;SDS011;24447;43.460;25.744;2023-11-19T03:47:40;14.73;;;5.53;;
38693;SDS011;24447;43.460;25.744;2023-11-19T03:50:07;11.52;;;6.13;;
38693;SDS011;24447;43.460;25.744;2023-11-19T03:52:34;21.63;;;9.38;;
38693;SDS011;24447;43.460;25.744;2023-11-19T03:55:00;10.85;;;3.95;;
38693;SDS011;24447;43.460;25.744;2023-11-19T03:57:28;9.80;;;3.63;;
38693;SDS011;24447;43.460;25.744;2023-11-19T03:59:53;9.80;;;3.47;;
38693;SDS011;24447;43.460;25.744;2023-11-19T04:02:20;10.32;;;3.95;;
38693;SDS011;24447;43.460;25.744;2023-11-19T04:04:46;8.98;;;2.47;;
38693;SDS011;24447;43.460;25.744;2023-11-19T04:07:13;33.42;;;12.52;;
38693;SDS011;24447;43.460;25.744;2023-11-19T04:09:39;22.35;;;9.52;;
38693;SDS011;24447;43.460;25.744;2023-11-19T04:12:05;16.30;;;6.40;;
38693;SDS011;24447;43.460;25.744;2023-11-19T04:14:31;16.23;;;5.18;;
38693;SDS011;24447;43.460;25.744;2023-11-19T04:16:57;13.80;;;5.68;;
38693;SDS011;24447;43.460;25.744;2023-11-19T04:19:23;16.77;;;5.22;;
38693;SDS011;24447;43.460;25.744;2023-11-19T04:21:49;12.10;;;4.78;;
38693;SDS011;24447;43.460;25.744;2023-11-19T04:24:15;9.93;;;4.28;;
38693;SDS011;24447;43.460;25.744;2023-11-19T04:26:41;14.15;;;4.05;;
38693;SDS011;24447;43.460;25.744;2023-11-19T04:29:14;13.40;;;5.45;;
38693;SDS011;24447;43.460;25.744;2023-11-19T04:31:42;31.30;;;11.50;;
38693;SDS011;24447;43.460;25.744;2023-11-19T04:34:09;20.25;;;9.20;;
38693;SDS011;24447;43.460;25.744;2023-11-19T04:36:36;13.18;;;5.72;;
38693;SDS011;24447;43.460;25.744;2023-11-19T04:39:02;13.00;;;4.75;;
38693;SDS011;24447;43.460;25.744;2023-11-19T04:41:46;21.40;;;7.47;;
38693;SDS011;24447;43.460;25.744;2023-11-19T04:44:18;41.45;;;16.42;;
38693;SDS011;24447;43.460;25.744;2023-11-19T04:46:44;26.45;;;10.98;;
38693;SDS011;24447;43.460;25.744;2023-11-19T04:49:14;29.75;;;10.57;;
38693;SDS011;24447;43.460;25.744;2023-11-19T04:51:41;11.88;;;4.60;;
38693;SDS011;24447;43.460;25.744;2023-11-19T04:54:11;25.67;;;9.30;;
38693;SDS011;24447;43.460;25.744;2023-11-19T04:56:37;6.40;;;3.03;;
38693;SDS011;24447;43.460;25.744;2023-11-19T04:59:03;13.25;;;4.25;;
38693;SDS011;24447;43.460;25.744;2023-11-19T05:01:30;11.38;;;4.43;;
38693;SDS011;24447;43.460;25.744;2023-11-19T05:03:57;26.55;;;11.63;;
38693;SDS011;24447;43.460;25.744;2023-11-19T05:06:29;19.15;;;7.28;;
38693;SDS011;24447;43.460;25.744;2023-11-19T05:08:56;22.85;;;9.52;;
38693;SDS011;24447;43.460;25.744;2023-11-19T05:11:26;19.52;;;7.47;;
38693;SDS011;24447;43.460;25.744;2023-11-19T05:13:53;11.18;;;5.45;;
38693;SDS011;24447;43.460;25.744;2023-11-19T05:16:19;16.08;;;5.68;;
38693;SDS011;24447;43.460;25.744;2023-11-19T05:18:46;38.15;;;13.52;;
38693;SDS011;24447;43.460;25.744;2023-11-19T05:21:12;39.50;;;11.93;;
38693;SDS011;24447;43.460;25.744;2023-11-19T05:23:38;28.08;;;13.68;;
38693;SDS011;24447;43.460;25.744;2023-11-19T05:26:06;25.35;;;9.13;;
38693;SDS011;24447;43.460;25.744;2023-11-19T05:28:32;23.35;;;9.10;;
38693;SDS011;24447;43.460;25.744;2023-11-19T05:30:58;20.58;;;7.57;;
38693;SDS011;24447;43.460;25.744;2023-11-19T05:33:24;41.90;;;15.90;;
38693;SDS011;24447;43.460;25.744;2023-11-19T05:35:50;29.58;;;12.02;;
38693;SDS011;24447;43.460;25.744;2023-11-19T05:38:16;15.65;;;6.28;;
38693;SDS011;24447;43.460;25.744;2023-11-19T05:40:42;40.25;;;17.05;;
38693;SDS011;24447;43.460;25.744;2023-11-19T05:43:08;31.67;;;10.23;;
38693;SDS011;24447;43.460;25.744;2023-11-19T05:45:34;47.55;;;16.80;;
38693;SDS011;24447;43.460;25.744;2023-11-19T05:48:00;10.75;;;4.95;;
38693;SDS011;24447;43.460;25.744;2023-11-19T05:50:29;16.00;;;5.60;;
38693;SDS011;24447;43.460;25.744;2023-11-19T05:52:55;14.52;;;6.40;;
38693;SDS011;24447;43.460;25.744;2023-11-19T05:55:21;15.27;;;6.60;;
38693;SDS011;24447;43.460;25.744;2023-11-19T05:57:48;57.67;;;19.13;;
38693;SDS011;24447;43.460;25.744;2023-11-19T06:00:16;26.85;;;10.90;;
38693;SDS011;24447;43.460;25.744;2023-11-19T06:02:42;24.08;;;11.23;;
38693;SDS011;24447;43.460;25.744;2023-11-19T06:05:09;21.30;;;9.55;;
38693;SDS011;24447;43.460;25.744;2023-11-19T06:07:35;40.13;;;13.25;;
38693;SDS011;24447;43.460;25.744;2023-11-19T06:10:02;46.42;;;15.75;;
38693;SDS011;24447;43.460;25.744;2023-11-19T06:12:30;22.52;;;8.32;;
38693;SDS011;24447;43.460;25.744;2023-11-19T06:14:57;18.15;;;6.60;;
38693;SDS011;24447;43.460;25.744;2023-11-19T06:17:23;24.77;;;9.48;;
38693;SDS011;24447;43.460;25.744;2023-11-19T06:19:48;18.60;;;7.25;;
38693;SDS011;24447;43.460;25.744;2023-11-19T06:22:14;17.40;;;6.20;;
38693;SDS011;24447;43.460;25.744;2023-11-19T06:24:41;16.13;;;5.38;;
38693;SDS011;24447;43.460;25.744;2023-11-19T06:27:07;12.80;;;5.18;;
38693;SDS011;24447;43.460;25.744;2023-11-19T06:29:33;11.98;;;5.40;;
38693;SDS011;24447;43.460;25.744;2023-11-19T06:31:59;29.88;;;12.07;;
38693;SDS011;24447;43.460;25.744;2023-11-19T06:34:25;20.05;;;6.95;;
38693;SDS011;24447;43.460;25.744;2023-11-19T06:36:51;24.33;;;11.70;;
38693;SDS011;24447;43.460;25.744;2023-11-19T06:39:18;9.23;;;3.65;;
38693;SDS011;24447;43.460;25.744;2023-11-19T06:41:45;8.65;;;4.15;;
38693;SDS011;24447;43.460;25.744;2023-11-19T06:44:11;12.40;;;4.85;;
38693;SDS011;24447;43.460;25.744;2023-11-19T06:46:37;16.13;;;4.13;;
38693;SDS011;24447;43.460;25.744;2023-11-19T06:49:03;8.77;;;3.40;;
38693;SDS011;24447;43.460;25.744;2023-11-19T06:51:29;21.00;;;6.93;;
38693;SDS011;24447;43.460;25.744;2023-11-19T06:53:55;15.80;;;5.40;;
38693;SDS011;24447;43.460;25.744;2023-11-19T06:56:24;27.60;;;8.07;;
38693;SDS011;24447;43.460;25.744;2023-11-19T06:58:51;14.95;;;4.88;;
38693;SDS011;24447;43.460;25.744;2023-11-19T07:01:17;14.05;;;4.43;;
38693;SDS011;24447;43.460;25.744;2023-11-19T07:03:46;15.40;;;5.97;;
38693;SDS011;24447;43.460;25.744;2023-11-19T07:06:12;22.67;;;9.18;;
38693;SDS011;24447;43.460;25.744;2023-11-19T07:08:39;12.10;;;3.55;;
38693;SDS011;24447;43.460;25.744;2023-11-19T07:11:06;16.88;;;6.50;;
38693;SDS011;24447;43.460;25.744;2023-11-19T07:13:35;6.80;;;3.50;;
38693;SDS011;24447;43.460;25.744;2023-11-19T07:16:01;9.57;;;3.13;;
38693;SDS011;24447;43.460;25.744;2023-11-19T07:18:27;7.70;;;2.92;;
38693;SDS011;24447;43.460;25.744;2023-11-19T07:20:53;16.42;;;4.05;;
38693;SDS011;24447;43.460;25.744;2023-11-19T07:23:19;11.02;;;3.83;;
38693;SDS011;24447;43.460;25.744;2023-11-19T07:25:46;10.25;;;4.18;;
38693;SDS011;24447;43.460;25.744;2023-11-19T07:28:12;4.40;;;2.85;;
38693;SDS011;24447;43.460;25.744;2023-11-19T07:30:39;8.77;;;4.50;;
38693;SDS011;24447;43.460;25.744;2023-11-19T07:33:05;9.82;;;3.70;;
38693;SDS011;24447;43.460;25.744;2023-11-19T07:35:31;8.38;;;3.30;;
38693;SDS011;24447;43.460;25.744;2023-11-19T07:37:57;4.95;;;2.80;;
38693;SDS011;24447;43.460;25.744;2023-11-19T07:40:24;7.22;;;3.38;;
38693;SDS011;24447;43.460;25.744;2023-11-19T07:42:50;7.53;;;3.25;;
38693;SDS011;24447;43.460;25.744;2023-11-19T07:45:16;25.42;;;4.63;;
38693;SDS011;24447;43.460;25.744;2023-11-19T07:47:43;9.00;;;3.95;;
38693;SDS011;24447;43.460;25.744;2023-11-19T07:50:12;8.18;;;3.80;;
38693;SDS011;24447;43.460;25.744;2023-11-19T07:52:39;16.63;;;6.88;;
38693;SDS011;24447;43.460;25.744;2023-11-19T07:55:05;5.78;;;2.85;;
38693;SDS011;24447;43.460;25.744;2023-11-19T07:57:31;10.15;;;3.75;;
38693;SDS011;24447;43.460;25.744;2023-11-19T07:59:57;12.65;;;4.43;;
38693;SDS011;24447;43.460;25.744;2023-11-19T08:02:23;9.90;;;3.65;;
38693;SDS011;24447;43.460;25.744;2023-11-19T08:04:49;9.48;;;3.55;;
38693;SDS011;24447;43.460;25.744;2023-11-19T08:07:17;18.55;;;4.45;;
38693;SDS011;24447;43.460;25.744;2023-11-19T08:09:47;9.60;;;4.28;;
38693;SDS011;24447;43.460;25.744;2023-11-19T08:12:13;12.27;;;3.95;;
38693;SDS011;24447;43.460;25.744;2023-11-19T08:14:40;8.95;;;3.83;;
38693;SDS011;24447;43.460;25.744;2023-11-19T08:17:06;5.53;;;3.42;;
38693;SDS011;24447;43.460;25.744;2023-11-19T08:19:32;8.80;;;3.60;;
38693;SDS011;24447;43.460;25.744;2023-11-19T08:21:58;6.93;;;3.38;;
38693;SDS011;24447;43.460;25.744;2023-11-19T08:24:24;6.82;;;2.90;;
38693;SDS011;24447;43.460;25.744;2023-11-19T08:26:50;5.20;;;2.55;;
38693;SDS011;24447;43.460;25.744;2023-11-19T08:29:16;10.55;;;4.00;;
38693;SDS011;24447;43.460;25.744;2023-11-19T08:31:42;11.57;;;3.85;;
38693;SDS011;24447;43.460;25.744;2023-11-19T08:34:08;6.38;;;3.33;;
38693;SDS011;24447;43.460;25.744;2023-11-19T08:36:34;5.60;;;2.97;;
38693;SDS011;24447;43.460;25.744;2023-11-19T08:39:00;6.55;;;2.60;;
38693;SDS011;24447;43.460;25.744;2023-11-19T08:41:26;3.85;;;2.67;;
38693;SDS011;24447;43.460;25.744;2023-11-19T08:43:52;10.10;;;3.47;;
38693;SDS011;24447;43.460;25.744;2023-11-19T08:46:18;12.52;;;4.18;;
38693;SDS011;24447;43.460;25.744;2023-11-19T08:48:44;11.02;;;3.45;;
38693;SDS011;24447;43.460;25.744;2023-11-19T08:51:11;8.95;;;3.83;;
38693;SDS011;24447;43.460;25.744;2023-11-19T08:53:38;12.02;;;5.20;;
38693;SDS011;24447;43.460;25.744;2023-11-19T08:56:04;11.98;;;3.85;;
38693;SDS011;24447;43.460;25.744;2023-11-19T08:58:30;11.85;;;3.88;;
38693;SDS011;24447;43.460;25.744;2023-11-19T09:00:57;11.68;;;4.22;;
38693;SDS011;24447;43.460;25.744;2023-11-19T09:03:23;6.15;;;2.95;;
38693;SDS011;24447;43.460;25.744;2023-11-19T09:05:51;10.48;;;2.50;;
38693;SDS011;24447;43.460;25.744;2023-11-19T09:08:17;8.57;;;3.75;;
38693;SDS011;24447;43.460;25.744;2023-11-19T09:10:43;6.55;;;3.13;;
38693;SDS011;24447;43.460;25.744;2023-11-19T09:13:09;5.57;;;3.13;;
38693;SDS011;24447;43.460;25.744;2023-11-19T09:15:35;3.70;;;2.47;;
38693;SDS011;24447;43.460;25.744;2023-11-19T09:18:01;3.40;;;2.58;;
38693;SDS011;24447;43.460;25.744;2023-11-19T09:20:27;7.15;;;3.28;;
38693;SDS011;24447;43.460;25.744;2023-11-19T09:22:53;9.20;;;2.88;;
38693;SDS011;24447;43.460;25.744;2023-11-19T09:25:18;6.35;;;2.92;;
38693;SDS011;24447;43.460;25.744;2023-11-19T09:27:45;7.18;;;2.70;;
38693;SDS011;24447;43.460;25.744;2023-11-19T09:30:11;6.05;;;2.47;;
38693;SDS011;24447;43.460;25.744;2023-11-19T09:32:37;7.03;;;3.45;;
38693;SDS011;24447;43.460;25.744;2023-11-19T09:35:04;4.65;;;2.60;;
38693;SDS011;24447;43.460;25.744;2023-11-19T09:37:31;9.40;;;3.28;;
38693;SDS011;24447;43.460;25.744;2023-11-19T09:39:57;6.75;;;3.05;;
38693;SDS011;24447;43.460;25.744;2023-11-19T09:42:23;8.32;;;3.67;;
38693;SDS011;24447;43.460;25.744;2023-11-19T09:44:49;5.97;;;2.53;;
38693;SDS011;24447;43.460;25.744;2023-11-19T09:47:16;3.33;;;2.28;;
38693;SDS011;24447;43.460;25.744;2023-11-19T09:49:42;11.68;;;4.53;;
38693;SDS011;24447;43.460;25.744;2023-11-19T09:52:08;11.13;;;3.92;;
38693;SDS011;24447;43.460;25.744;2023-11-19T09:54:34;6.95;;;3.72;;
38693;SDS011;24447;43.460;25.744;2023-11-19T09:57:01;11.32;;;4.55;;
38693;SDS011;24447;43.460;25.744;2023-11-19T09:59:31;8.98;;;3.33;;
38693;SDS011;24447;43.460;25.744;2023-11-19T10:01:58;7.65;;;3.05;;
38693;SDS011;24447;43.460;25.744;2023-11-19T10:04:25;6.68;;;3.28;;
38693;SDS011;24447;43.460;25.744;2023-11-19T10:06:51;11.07;;;2.88;;
38693;SDS011;24447;43.460;25.744;2023-11-19T10:09:17;30.42;;;4.88;;
38693;SDS011;24447;43.460;25.744;2023-11-19T10:11:44;8.68;;;3.95;;
38693;SDS011;24447;43.460;25.744;2023-11-19T10:14:10;8.35;;;3.75;;
38693;SDS011;24447;43.460;25.744;2023-11-19T10:16:36;5.15;;;2.78;;
38693;SDS011;24447;43.460;25.744;2023-11-19T10:19:03;4.32;;;2.33;;
38693;SDS011;24447;43.460;25.744;2023-11-19T10:21:32;6.55;;;3.05;;
38693;SDS011;24447;43.460;25.744;2023-11-19T10:23:59;7.13;;;3.15;;
38693;SDS011;24447;43.460;25.744;2023-11-19T10:26:25;7.57;;;2.92;;
38693;SDS011;24447;43.460;25.744;2023-11-19T10:28:52;5.55;;;2.35;;
38693;SDS011;24447;43.460;25.744;2023-11-19T10:31:19;4.65;;;2.10;;
38693;SDS011;24447;43.460;25.744;2023-11-19T10:33:54;6.88;;;3.15;;
38693;SDS011;24447;43.460;25.744;2023-11-19T10:36:21;11.40;;;3.05;;
38693;SDS011;24447;43.460;25.744;2023-11-19T10:38:55;6.30;;;3.45;;
38693;SDS011;24447;43.460;25.744;2023-11-19T10:41:31;12.55;;;3.58;;
38693;SDS011;24447;43.460;25.744;2023-11-19T10:43:58;14.77;;;4.72;;
38693;SDS011;24447;43.460;25.744;2023-11-19T10:46:41;4.85;;;3.00;;
38693;SDS011;24447;43.460;25.744;2023-11-19T10:49:08;7.00;;;3.55;;
38693;SDS011;24447;43.460;25.744;2023-11-19T10:51:35;8.00;;;3.08;;
38693;SDS011;24447;43.460;25.744;2023-11-19T10:54:02;8.85;;;3.80;;
38693;SDS011;24447;43.460;25.744;2023-11-19T10:56:33;10.35;;;4.13;;
38693;SDS011;24447;43.460;25.744;2023-11-19T10:58:59;10.30;;;2.78;;
38693;SDS011;24447;43.460;25.744;2023-11-19T11:01:33;7.28;;;2.47;;
38693;SDS011;24447;43.460;25.744;2023-11-19T11:04:03;7.47;;;3.70;;
38693;SDS011;24447;43.460;25.744;2023-11-19T11:06:31;6.65;;;2.80;;
38693;SDS011;24447;43.460;25.744;2023-11-19T11:08:59;13.80;;;4.10;;
38693;SDS011;24447;43.460;25.744;2023-11-19T11:11:25;8.60;;;3.30;;
38693;SDS011;24447;43.460;25.744;2023-11-19T11:13:51;8.65;;;3.63;;
38693;SDS011;24447;43.460;25.744;2023-11-19T11:16:19;7.47;;;3.60;;
38693;SDS011;24447;43.460;25.744;2023-11-19T11:18:46;7.55;;;3.00;;
38693;SDS011;24447;43.460;25.744;2023-11-19T11:21:15;9.10;;;4.07;;
38693;SDS011;24447;43.460;25.744;2023-11-19T11:39:35;6.07;;;3.13;;
38693;SDS011;24447;43.460;25.744;2023-11-19T11:45:02;11.38;;;5.10;;
38693;SDS011;24447;43.460;25.744;2023-11-19T11:48:20;9.73;;;3.80;;
38693;SDS011;24447;43.460;25.744;2023-11-19T11:50:21;19.13;;;7.82;;
38693;SDS011;24447;43.460;25.744;2023-11-19T11:58:02;15.40;;;6.03;;
38693;SDS011;24447;43.460;25.744;2023-11-19T12:03:01;10.73;;;4.00;;
38693;SDS011;24447;43.460;25.744;2023-11-19T12:05:28;6.43;;;4.10;;
38693;SDS011;24447;43.460;25.744;2023-11-19T12:07:55;13.43;;;5.53;;
38693;SDS011;24447;43.460;25.744;2023-11-19T12:10:24;5.10;;;2.83;;
38693;SDS011;24447;43.460;25.744;2023-11-19T12:12:53;11.40;;;4.15;;
38693;SDS011;24447;43.460;25.744;2023-11-19T12:15:19;10.20;;;4.28;;
38693;SDS011;24447;43.460;25.744;2023-11-19T12:17:50;12.00;;;4.50;;
38693;SDS011;24447;43.460;25.744;2023-11-19T12:20:16;5.60;;;3.20;;
38693;SDS011;24447;43.460;25.744;2023-11-19T12:22:44;8.90;;;3.67;;
38693;SDS011;24447;43.460;25.744;2023-11-19T12:25:11;8.70;;;3.40;;
38693;SDS011;24447;43.460;25.744;2023-11-19T12:27:42;13.85;;;5.18;;
38693;SDS011;24447;43.460;25.744;2023-11-19T12:35:08;13.55;;;5.63;;
38693;SDS011;24447;43.460;25.744;2023-11-19T12:37:44;13.25;;;4.18;;
38693;SDS011;24447;43.460;25.744;2023-11-19T12:42:38;11.77;;;5.10;;
38693;SDS011;24447;43.460;25.744;2023-11-19T12:45:04;11.57;;;4.20;;
38693;SDS011;24447;43.460;25.744;2023-11-19T12:47:31;7.97;;;3.47;;
38693;SDS011;24447;43.460;25.744;2023-11-19T12:49:57;12.27;;;3.72;;
38693;SDS011;24447;43.460;25.744;2023-11-19T12:52:23;9.93;;;4.15;;
38693;SDS011;24447;43.460;25.744;2023-11-19T12:54:49;9.93;;;4.50;;
38693;SDS011;24447;43.460;25.744;2023-11-19T12:57:16;13.20;;;4.15;;
38693;SDS011;24447;43.460;25.744;2023-11-19T12:59:53;7.40;;;3.88;;
38693;SDS011;24447;43.460;25.744;2023-11-19T13:02:23;7.88;;;3.20;;
38693;SDS011;24447;43.460;25.744;2023-11-19T13:05:26;10.55;;;3.85;;
38693;SDS011;24447;43.460;25.744;2023-11-19T13:10:29;4.15;;;2.78;;
38693;SDS011;24447;43.460;25.744;2023-11-19T13:13:14;12.63;;;3.90;;
38693;SDS011;24447;43.460;25.744;2023-11-19T13:15:40;6.47;;;2.85;;
38693;SDS011;24447;43.460;25.744;2023-11-19T13:18:06;7.43;;;4.00;;
38693;SDS011;24447;43.460;25.744;2023-11-19T13:20:32;11.68;;;5.68;;
38693;SDS011;24447;43.460;25.744;2023-11-19T13:22:59;12.70;;;4.75;;
38693;SDS011;24447;43.460;25.744;2023-11-19T13:25:26;9.45;;;3.80;;
38693;SDS011;24447;43.460;25.744;2023-11-19T13:27:53;10.48;;;4.38;;
38693;SDS011;24447;43.460;25.744;2023-11-19T13:30:19;13.23;;;4.72;;
38693;SDS011;24447;43.460;25.744;2023-11-19T13:32:47;9.27;;;4.10;;
38693;SDS011;24447;43.460;25.744;2023-11-19T13:35:13;9.05;;;3.85;;
38693;SDS011;24447;43.460;25.744;2023-11-19T13:37:40;18.27;;;7.18;;
38693;SDS011;24447;43.460;25.744;2023-11-19T13:40:06;20.13;;;7.28;;
38693;SDS011;24447;43.460;25.744;2023-11-19T13:42:35;11.52;;;4.15;;
38693;SDS011;24447;43.460;25.744;2023-11-19T13:45:15;11.45;;;4.45;;
38693;SDS011;24447;43.460;25.744;2023-11-19T13:47:44;6.45;;;3.40;;
38693;SDS011;24447;43.460;25.744;2023-11-19T13:50:14;10.75;;;4.40;;
38693;SDS011;24447;43.460;25.744;2023-11-19T13:52:43;11.57;;;3.95;;
38693;SDS011;24447;43.460;25.744;2023-11-19T13:55:11;10.95;;;4.25;;
38693;SDS011;24447;43.460;25.744;2023-11-19T13:57:38;11.30;;;5.47;;
38693;SDS011;24447;43.460;25.744;2023-11-19T14:00:05;10.88;;;3.47;;
38693;SDS011;24447;43.460;25.744;2023-11-19T14:02:38;11.55;;;4.18;;
38693;SDS011;24447;43.460;25.744;2023-11-19T14:05:05;12.85;;;4.07;;
38693;SDS011;24447;43.460;25.744;2023-11-19T14:07:32;11.02;;;4.05;;
38693;SDS011;24447;43.460;25.744;2023-11-19T14:09:58;11.73;;;4.30;;
38693;SDS011;24447;43.460;25.744;2023-11-19T14:12:24;10.10;;;4.72;;
38693;SDS011;24447;43.460;25.744;2023-11-19T14:14:50;18.38;;;4.45;;
38693;SDS011;24447;43.460;25.744;2023-11-19T14:17:16;16.25;;;5.28;;
38693;SDS011;24447;43.460;25.744;2023-11-19T14:19:43;14.63;;;5.55;;
38693;SDS011;24447;43.460;25.744;2023-11-19T14:22:09;15.02;;;4.93;;
38693;SDS011;24447;43.460;25.744;2023-11-19T14:24:36;19.45;;;7.82;;
38693;SDS011;24447;43.460;25.744;2023-11-19T14:27:03;18.98;;;6.13;;
38693;SDS011;24447;43.460;25.744;2023-11-19T14:29:29;20.00;;;6.20;;
38693;SDS011;24447;43.460;25.744;2023-11-19T14:31:55;13.48;;;6.25;;
38693;SDS011;24447;43.460;25.744;2023-11-19T14:34:22;19.85;;;8.13;;
38693;SDS011;24447;43.460;25.744;2023-11-19T14:36:48;28.73;;;9.00;;
38693;SDS011;24447;43.460;25.744;2023-11-19T14:39:14;18.17;;;6.60;;
38693;SDS011;24447;43.460;25.744;2023-11-19T14:41:40;18.20;;;6.88;;
38693;SDS011;24447;43.460;25.744;2023-11-19T14:44:09;16.33;;;7.18;;
38693;SDS011;24447;43.460;25.744;2023-11-19T14:46:35;20.48;;;7.65;;
38693;SDS011;24447;43.460;25.744;2023-11-19T14:49:01;18.17;;;6.50;;
38693;SDS011;24447;43.460;25.744;2023-11-19T14:51:29;19.25;;;7.05;;
38693;SDS011;24447;43.460;25.744;2023-11-19T14:53:55;23.50;;;9.70;;
38693;SDS011;24447;43.460;25.744;2023-11-19T14:56:21;26.55;;;8.10;;
38693;SDS011;24447;43.460;25.744;2023-11-19T14:58:47;20.67;;;9.63;;
38693;SDS011;24447;43.460;25.744;2023-11-19T15:01:15;17.83;;;6.18;;
38693;SDS011;24447;43.460;25.744;2023-11-19T15:03:41;16.50;;;5.72;;
38693;SDS011;24447;43.460;25.744;2023-11-19T15:06:07;21.40;;;6.80;;